createdAt,value
2022-11-16T00:01:59.839Z,94.65
2022-11-16T00:04:27.760Z,95.60
2022-11-16T00:06:55.473Z,95.50
2022-11-16T00:09:23.222Z,94.17
2022-11-16T00:11:53.685Z,93.83
2022-11-16T00:14:23.088Z,93.84
2022-11-16T00:16:51.374Z,94.29
2022-11-16T00:19:19.473Z,93.23
2022-11-16T00:21:47.125Z,93.44
2022-11-16T00:24:16.623Z,93.07
2022-11-16T00:26:44.491Z,93.34
2022-11-16T00:29:18.437Z,92.75
2022-11-16T00:31:47.502Z,92.90
2022-11-16T00:34:15.092Z,93.55
2022-11-16T00:36:42.685Z,92.74
2022-11-16T00:39:12.257Z,93.21
2022-11-16T00:41:40.298Z,93.46
2022-11-16T00:44:07.950Z,93.41
2022-11-16T00:46:35.924Z,93.55
2022-11-16T00:49:04.251Z,93.21
2022-11-16T00:51:32.577Z,93.07
2022-11-16T00:54:01.201Z,93.75
2022-11-16T00:56:29.175Z,92.96
2022-11-16T00:58:56.874Z,93.32
2022-11-16T01:01:24.977Z,93.63
2022-11-16T01:03:52.889Z,94.24
2022-11-16T01:06:20.678Z,94.08
2022-11-16T01:08:48.752Z,93.72
2022-11-16T01:11:18.309Z,94.04
2022-11-16T01:13:46.373Z,94.40
2022-11-16T01:16:16.244Z,94.92
2022-11-16T01:18:47.799Z,94.56
2022-11-16T01:21:16.018Z,94.20
2022-11-16T01:23:43.795Z,93.86
2022-11-16T01:26:11.548Z,94.34
2022-11-16T01:28:41.048Z,94.98
2022-11-16T01:31:10.123Z,94.56
2022-11-16T01:33:38.205Z,94.75
2022-11-16T01:36:11.082Z,95.13
2022-11-16T01:38:38.764Z,94.93
2022-11-16T01:41:06.758Z,93.85
2022-11-16T01:43:57.543Z,93.82
2022-11-16T01:46:27.026Z,94.06
2022-11-16T01:49:08.090Z,94.05
2022-11-16T01:51:36.743Z,96.32
2022-11-16T01:54:07.423Z,96.62
2022-11-16T01:56:36.999Z,96.79
2022-11-16T01:59:05.797Z,96.81
2022-11-16T02:01:33.955Z,97.04
2022-11-16T02:04:03.374Z,97.26
2022-11-16T02:06:49.865Z,97.01
2022-11-16T02:09:39.859Z,97.28
2022-11-16T02:12:10.630Z,97.76
2022-11-16T02:15:00.575Z,97.12
2022-11-16T02:17:53.570Z,97.72
2022-11-16T02:20:43.623Z,97.98
2022-11-16T02:23:14.030Z,98.10
2022-11-16T02:26:03.728Z,97.66
2022-11-16T02:28:46.428Z,98.32
2022-11-16T02:31:21.148Z,98.56
2022-11-16T02:33:49.790Z,97.83
2022-11-16T02:36:20.927Z,97.65
2022-11-16T02:38:53.251Z,97.33
2022-11-16T02:41:22.359Z,97.32
2022-11-16T02:44:03.512Z,97.35
2022-11-16T02:46:36.798Z,97.69
2022-11-16T02:49:10.493Z,97.97
2022-11-16T02:51:38.911Z,98.46
2022-11-16T02:54:13.267Z,97.95
2022-11-16T02:56:43.580Z,97.75
2022-11-16T02:59:16.522Z,97.64
2022-11-16T03:02:19.438Z,98.05
2022-11-16T03:04:49.598Z,97.67
2022-11-16T03:07:20.583Z,97.64
2022-11-16T03:09:49.031Z,97.92
2022-11-16T03:12:19.955Z,98.20
2022-11-16T03:14:57.042Z,98.10
2022-11-16T03:17:30.304Z,97.70
2022-11-16T03:20:14.158Z,98.37
2022-11-16T03:22:42.951Z,97.79
2022-11-16T03:25:13.192Z,97.97
2022-11-16T03:27:59.724Z,97.89
2022-11-16T03:30:30.056Z,96.95
2022-11-16T03:33:13.418Z,97.75
2022-11-16T03:36:05.659Z,97.91
2022-11-16T03:38:35.690Z,97.84
2022-11-16T03:41:06.878Z,98.18
2022-11-16T03:43:35.844Z,98.23
2022-11-16T03:46:04.888Z,98.12
2022-11-16T03:48:37.161Z,98.22
2022-11-16T03:51:08.540Z,98.52
2022-11-16T03:53:37.248Z,97.90
2022-11-16T03:56:05.233Z,98.08
2022-11-16T03:58:33.401Z,97.69
2022-11-16T04:01:02.283Z,97.69
2022-11-16T04:03:30.315Z,97.71
2022-11-16T04:05:58.736Z,98.58
2022-11-16T04:08:26.380Z,98.21
2022-11-16T04:10:54.324Z,98.52
2022-11-16T04:13:27.124Z,98.72
2022-11-16T04:15:55.071Z,98.96
2022-11-16T04:18:23.821Z,100.00
2022-11-16T04:20:51.721Z,99.78
2022-11-16T04:23:21.306Z,100.00
2022-11-16T04:25:49.936Z,100.00
2022-11-16T04:28:20.495Z,100.00
2022-11-16T04:30:49.749Z,100.00
2022-11-16T04:33:17.735Z,100.00
2022-11-16T04:35:45.488Z,100.00
2022-11-16T04:38:14.168Z,100.00
2022-11-16T04:40:41.795Z,100.00
2022-11-16T04:43:11.676Z,100.00
2022-11-16T04:45:39.699Z,100.00
2022-11-16T04:48:10.623Z,100.00
2022-11-16T04:50:38.988Z,100.00
2022-11-16T04:53:08.167Z,100.00
2022-11-16T04:55:36.893Z,100.00
2022-11-16T04:58:05.452Z,100.00
2022-11-16T05:00:33.361Z,100.00
2022-11-16T05:03:01.932Z,100.00
2022-11-16T05:05:30.166Z,100.00
2022-11-16T05:07:58.322Z,100.00
2022-11-16T05:10:26.603Z,100.00
2022-11-16T05:12:55.078Z,100.00
2022-11-16T05:15:23.320Z,100.00
2022-11-16T05:17:51.382Z,100.00
2022-11-16T05:20:19.623Z,100.00
2022-11-16T05:22:55.200Z,100.00
2022-11-16T05:25:23.551Z,100.00
2022-11-16T05:27:51.738Z,100.00
2022-11-16T05:30:19.500Z,100.00
2022-11-16T05:32:47.322Z,99.99
2022-11-16T05:35:15.664Z,99.69
2022-11-16T05:37:43.689Z,99.25
2022-11-16T05:40:11.701Z,98.62
2022-11-16T05:42:39.972Z,98.72
2022-11-16T05:45:08.147Z,98.38
2022-11-16T05:47:35.702Z,98.80
2022-11-16T05:50:04.025Z,98.54
2022-11-16T05:52:31.985Z,98.17
2022-11-16T05:55:01.140Z,98.18
2022-11-16T05:57:30.144Z,98.07
2022-11-16T05:59:57.782Z,97.73
2022-11-16T06:02:25.414Z,98.97
2022-11-16T06:04:53.313Z,98.64
2022-11-16T06:07:21.589Z,98.20
2022-11-16T06:09:49.521Z,98.04
2022-11-16T06:12:18.462Z,98.17
2022-11-16T06:14:46.074Z,98.60
2022-11-16T06:17:13.727Z,98.35
2022-11-16T06:19:42.076Z,98.94
2022-11-16T06:22:09.712Z,99.60
2022-11-16T06:24:37.308Z,99.11
2022-11-16T06:27:05.195Z,99.12
2022-11-16T06:29:33.550Z,99.12
2022-11-16T06:32:01.360Z,98.98
2022-11-16T06:34:29.238Z,98.80
2022-11-16T06:36:57.205Z,98.61
2022-11-16T06:39:25.004Z,98.76
2022-11-16T06:41:53.111Z,98.47
2022-11-16T06:44:20.932Z,98.84
2022-11-16T06:46:49.932Z,98.89
2022-11-16T06:49:18.708Z,98.28
2022-11-16T06:51:46.756Z,98.12
2022-11-16T06:54:14.442Z,98.57
2022-11-16T06:56:42.316Z,98.30
2022-11-16T06:59:10.070Z,98.28
2022-11-16T07:01:38.201Z,99.02
2022-11-16T07:04:06.424Z,98.39
2022-11-16T07:06:33.974Z,99.66
2022-11-16T07:09:01.786Z,99.77
2022-11-16T07:11:30.017Z,99.43
2022-11-16T07:13:58.102Z,100.00
2022-11-16T07:16:26.432Z,99.77
2022-11-16T07:18:56.358Z,99.27
2022-11-16T07:21:24.046Z,99.82
2022-11-16T07:23:53.156Z,98.34
2022-11-16T07:26:21.789Z,99.15
2022-11-16T07:28:49.954Z,99.17
2022-11-16T07:31:18.418Z,98.20
2022-11-16T07:33:46.979Z,97.74
2022-11-16T07:36:16.804Z,97.39
2022-11-16T07:38:45.061Z,98.97
2022-11-16T07:41:18.818Z,100.00
2022-11-16T07:43:52.817Z,100.00
2022-11-16T07:46:46.593Z,98.67
2022-11-16T07:49:18.588Z,99.57
2022-11-16T07:51:46.949Z,100.00
2022-11-16T07:54:16.372Z,99.50
2022-11-16T07:56:43.998Z,97.97
2022-11-16T07:59:12.556Z,100.00
2022-11-16T08:01:40.784Z,100.00
2022-11-16T08:04:09.866Z,100.00
2022-11-16T08:06:37.998Z,100.00
2022-11-16T08:09:05.794Z,100.00
2022-11-16T08:11:34.135Z,100.00
2022-11-16T08:14:02.066Z,100.00
2022-11-16T08:16:29.909Z,99.23
2022-11-16T08:19:00.479Z,100.00
2022-11-16T08:21:28.642Z,98.73
2022-11-16T08:23:58.750Z,100.00
2022-11-16T08:26:27.927Z,100.00
2022-11-16T08:28:57.009Z,100.00
2022-11-16T08:31:27.256Z,100.00
2022-11-16T08:33:59.903Z,100.00
2022-11-16T08:36:28.017Z,100.00
2022-11-16T08:38:56.220Z,99.48
2022-11-16T08:41:24.397Z,99.28
2022-11-16T08:43:52.243Z,96.20
2022-11-16T08:46:20.876Z,98.70
2022-11-16T08:48:49.440Z,98.59
2022-11-16T08:51:18.901Z,99.10
2022-11-16T08:53:49.543Z,99.22
2022-11-16T08:56:22.262Z,99.64
2022-11-16T08:58:57.854Z,100.00
2022-11-16T09:01:29.408Z,100.00
2022-11-16T09:03:57.408Z,100.00
2022-11-16T09:06:25.750Z,100.00
2022-11-16T09:08:53.696Z,98.87
2022-11-16T09:11:23.323Z,99.65
2022-11-16T09:13:52.503Z,99.06
2022-11-16T09:16:20.998Z,98.85
2022-11-16T09:18:50.199Z,99.24
2022-11-16T09:21:22.053Z,98.72
2022-11-16T09:23:50.603Z,96.65
2022-11-16T09:26:19.027Z,95.93
2022-11-16T09:28:47.439Z,97.38
2022-11-16T09:31:18.996Z,98.18
2022-11-16T09:33:50.690Z,97.99
2022-11-16T09:36:18.884Z,97.89
2022-11-16T09:39:19.158Z,98.57
2022-11-16T09:41:53.556Z,98.31
2022-11-16T09:44:52.954Z,98.00
2022-11-16T09:47:24.247Z,98.60
2022-11-16T09:50:01.614Z,99.60
2022-11-16T09:52:38.841Z,98.72
2022-11-16T09:55:27.979Z,98.45
2022-11-16T09:57:57.069Z,98.04
2022-11-16T10:00:25.758Z,97.35
2022-11-16T10:03:06.467Z,97.35
2022-11-16T10:06:03.044Z,95.96
2022-11-16T10:08:41.240Z,97.61
2022-11-16T10:11:29.237Z,97.61
2022-11-16T10:14:18.814Z,97.75
2022-11-16T10:17:06.925Z,96.07
2022-11-16T10:19:34.823Z,95.45
2022-11-16T10:22:37.654Z,95.55
2022-11-16T10:25:24.059Z,95.54
2022-11-16T10:27:58.840Z,95.46
2022-11-16T10:30:27.314Z,96.41
2022-11-16T10:33:00.991Z,96.04
2022-11-16T10:35:34.454Z,96.64
2022-11-16T10:38:02.564Z,96.47
2022-11-16T10:40:36.921Z,96.00
2022-11-16T10:43:04.335Z,95.44
2022-11-16T10:46:04.467Z,95.49
2022-11-16T10:48:39.997Z,95.31
2022-11-16T10:51:09.093Z,95.72
2022-11-16T10:53:39.087Z,95.97
2022-11-16T10:56:21.134Z,94.79
2022-11-16T10:59:12.834Z,94.80
2022-11-16T11:01:41.468Z,95.06
2022-11-16T11:04:21.254Z,95.53
2022-11-16T11:06:53.531Z,95.76
2022-11-16T11:09:23.254Z,96.74
2022-11-16T11:12:17.967Z,95.99
2022-11-16T11:15:12.610Z,95.45
2022-11-16T11:17:45.579Z,95.45
2022-11-16T11:20:16.048Z,94.69
2022-11-16T11:22:52.282Z,94.54
2022-11-16T11:25:23.893Z,94.87
2022-11-16T11:27:51.480Z,94.06
2022-11-16T11:30:20.561Z,94.68
2022-11-16T11:32:48.835Z,94.67
2022-11-16T11:35:42.929Z,95.01
2022-11-16T11:38:14.891Z,96.17
2022-11-16T11:40:56.106Z,95.81
2022-11-16T11:43:24.544Z,96.15
2022-11-16T11:46:13.938Z,96.29
2022-11-16T11:49:06.466Z,96.72
2022-11-16T11:51:36.834Z,96.69
2022-11-16T11:54:05.248Z,95.66
2022-11-16T11:56:33.353Z,95.57
2022-11-16T11:59:03.482Z,95.91
2022-11-16T12:01:37.443Z,96.38
2022-11-16T12:04:08.189Z,96.68
2022-11-16T12:06:44.069Z,96.62
2022-11-16T12:09:31.341Z,96.80
2022-11-16T12:12:17.715Z,96.83
2022-11-16T12:14:51.583Z,96.98
2022-11-16T12:17:22.079Z,96.41
2022-11-16T12:20:22.317Z,95.88
2022-11-16T12:23:09.175Z,96.43
2022-11-16T12:25:48.270Z,96.33
2022-11-16T12:28:47.127Z,96.86
2022-11-16T12:31:39.382Z,97.10
2022-11-16T12:34:27.439Z,97.11
2022-11-16T12:37:15.056Z,97.39
2022-11-16T12:39:58.440Z,97.34
2022-11-16T12:42:26.341Z,97.10
2022-11-16T12:45:15.321Z,97.92
2022-11-16T12:48:01.807Z,97.27
2022-11-16T12:50:41.157Z,97.91
2022-11-16T12:53:39.197Z,97.77
2022-11-16T12:56:11.244Z,98.32
2022-11-16T12:58:55.646Z,98.24
2022-11-16T13:01:54.061Z,97.80
2022-11-16T13:04:34.027Z,96.61
2022-11-16T13:07:10.631Z,96.93
2022-11-16T13:10:07.266Z,96.46
2022-11-16T13:12:36.289Z,96.85
2022-11-16T13:15:05.252Z,97.38
2022-11-16T13:17:37.170Z,97.87
2022-11-16T13:20:16.960Z,97.20
2022-11-16T13:23:14.378Z,97.80
2022-11-16T13:26:01.651Z,98.01
2022-11-16T13:28:59.381Z,98.99
2022-11-16T13:31:35.416Z,98.64
2022-11-16T13:34:05.974Z,98.55
2022-11-16T13:36:36.653Z,98.75
2022-11-16T13:39:05.715Z,99.60
2022-11-16T13:41:40.637Z,99.88
2022-11-16T13:44:34.852Z,100.00
2022-11-16T13:47:04.786Z,100.00
2022-11-16T13:49:41.498Z,99.75
2022-11-16T13:52:41.001Z,100.00
2022-11-16T13:55:14.403Z,100.00
2022-11-16T13:57:50.678Z,100.00
2022-11-16T14:00:59.301Z,100.00
2022-11-16T14:03:32.937Z,100.00
2022-11-16T14:06:01.147Z,99.83
2022-11-16T14:08:34.780Z,100.00
2022-11-16T14:11:05.426Z,100.00
2022-11-16T14:13:36.377Z,100.00
2022-11-16T14:16:19.005Z,100.00
2022-11-16T14:18:49.828Z,100.00
2022-11-16T14:21:19.986Z,100.00
2022-11-16T14:23:56.882Z,100.00
2022-11-16T14:26:56.753Z,100.00
2022-11-16T14:29:50.364Z,100.00
2022-11-16T14:32:26.294Z,100.00
2022-11-16T14:34:56.284Z,100.00
2022-11-16T14:37:26.685Z,100.00
2022-11-16T14:40:13.392Z,100.00
2022-11-16T14:45:52.257Z,100.00
2022-11-16T14:48:21.441Z,100.00
2022-11-16T14:51:11.538Z,100.00
2022-11-16T14:53:48.202Z,100.00
2022-11-16T14:56:18.083Z,100.00
2022-11-16T14:58:56.996Z,100.00
2022-11-16T15:01:30.283Z,100.00
2022-11-16T15:04:09.237Z,100.00
2022-11-16T15:06:41.947Z,100.00
2022-11-16T15:09:16.871Z,100.00
2022-11-16T15:11:47.709Z,100.00
2022-11-16T15:14:22.462Z,100.00
2022-11-16T15:16:52.127Z,100.00
2022-11-16T15:19:20.542Z,100.00
2022-11-16T15:21:57.303Z,100.00
2022-11-16T15:24:34.022Z,100.00
2022-11-16T15:27:46.787Z,100.00
2022-11-16T15:30:20.539Z,100.00
2022-11-16T15:32:49.871Z,100.00
2022-11-16T15:35:28.403Z,100.00
2022-11-16T15:38:16.809Z,100.00
2022-11-16T15:40:54.125Z,100.00
2022-11-16T15:43:24.220Z,100.00
2022-11-16T15:45:52.994Z,100.00
2022-11-16T15:48:25.128Z,100.00
2022-11-16T15:51:06.122Z,100.00
2022-11-16T15:53:33.925Z,100.00
2022-11-16T15:56:10.109Z,100.00
2022-11-16T15:58:39.554Z,100.00
2022-11-16T16:01:08.677Z,100.00
2022-11-16T16:03:37.734Z,100.00
2022-11-16T16:06:06.483Z,100.00
2022-11-16T16:08:36.231Z,100.00
2022-11-16T16:11:26.970Z,100.00
2022-11-16T16:13:58.785Z,100.00
2022-11-16T16:16:38.189Z,100.00
2022-11-16T16:19:41.607Z,100.00
2022-11-16T16:22:25.161Z,100.00
2022-11-16T16:24:52.856Z,100.00
2022-11-16T16:27:23.190Z,100.00
2022-11-16T16:29:53.072Z,100.00
2022-11-16T16:32:24.902Z,100.00
2022-11-16T16:34:55.013Z,100.00
2022-11-16T16:37:23.534Z,100.00
2022-11-16T16:39:51.305Z,100.00
2022-11-16T16:42:18.936Z,100.00
2022-11-16T16:44:47.555Z,100.00
2022-11-16T16:47:15.435Z,100.00
2022-11-16T16:49:43.292Z,100.00
2022-11-16T16:52:14.404Z,100.00
2022-11-16T16:54:42.173Z,100.00
2022-11-16T16:57:16.967Z,100.00
2022-11-16T16:59:45.701Z,100.00
2022-11-16T17:02:13.936Z,100.00
2022-11-16T17:04:41.677Z,100.00
2022-11-16T17:07:10.562Z,100.00
2022-11-16T17:09:38.357Z,100.00
2022-11-16T17:12:07.153Z,100.00
2022-11-16T17:14:35.068Z,100.00
2022-11-16T17:17:03.795Z,100.00
2022-11-16T17:19:32.829Z,100.00
2022-11-16T17:22:01.092Z,100.00
2022-11-16T17:24:28.758Z,100.00
2022-11-16T17:26:56.575Z,100.00
2022-11-16T17:29:24.583Z,100.00
2022-11-16T17:31:52.207Z,100.00
2022-11-16T17:34:20.053Z,100.00
2022-11-16T17:36:49.904Z,100.00
2022-11-16T17:39:17.989Z,100.00
2022-11-16T17:41:45.754Z,100.00
2022-11-16T17:44:20.163Z,100.00
2022-11-16T17:46:49.498Z,100.00
2022-11-16T17:49:17.722Z,100.00
2022-11-16T17:51:45.979Z,100.00
2022-11-16T17:54:13.940Z,100.00
2022-11-16T17:56:42.149Z,100.00
2022-11-16T17:59:09.980Z,100.00
2022-11-16T18:01:37.845Z,100.00
2022-11-16T18:04:05.987Z,100.00
2022-11-16T18:06:34.035Z,100.00
2022-11-16T18:09:03.297Z,100.00
2022-11-16T18:11:31.283Z,100.00
2022-11-16T18:14:00.725Z,100.00
2022-11-16T18:16:30.699Z,100.00
2022-11-16T18:19:04.657Z,100.00
2022-11-16T18:21:38.715Z,100.00
2022-11-16T18:24:07.486Z,100.00
2022-11-16T18:26:35.546Z,100.00
2022-11-16T18:29:04.509Z,99.98
2022-11-16T18:31:33.186Z,100.00
2022-11-16T18:34:01.454Z,99.78
2022-11-16T18:36:29.183Z,100.00
2022-11-16T18:38:57.491Z,100.00
2022-11-16T18:41:25.679Z,100.00
2022-11-16T18:43:57.133Z,100.00
2022-11-16T18:46:34.224Z,100.00
2022-11-16T18:49:02.328Z,100.00
2022-11-16T18:51:30.563Z,100.00
2022-11-16T18:53:58.168Z,100.00
2022-11-16T18:56:26.300Z,100.00
2022-11-16T18:58:54.917Z,100.00
2022-11-16T19:01:24.942Z,100.00
2022-11-16T19:03:54.018Z,100.00
2022-11-16T19:06:23.136Z,98.68
2022-11-16T19:08:55.983Z,100.00
2022-11-16T19:11:25.490Z,100.00
2022-11-16T19:13:58.514Z,100.00
2022-11-16T19:16:27.020Z,100.00
2022-11-16T19:18:55.183Z,100.00
2022-11-16T19:21:23.366Z,100.00
2022-11-16T19:23:53.652Z,100.00
2022-11-16T19:26:23.942Z,100.00
2022-11-16T19:28:52.763Z,100.00
2022-11-16T19:31:21.717Z,100.00
2022-11-16T19:33:59.089Z,99.93
2022-11-16T19:36:28.388Z,99.49
2022-11-16T19:38:56.121Z,100.00
2022-11-16T19:41:24.596Z,100.00
2022-11-16T19:43:53.693Z,100.00
2022-11-16T19:46:21.497Z,100.00
2022-11-16T19:48:50.971Z,100.00
2022-11-16T19:51:22.651Z,100.00
2022-11-16T19:53:50.643Z,100.00
2022-11-16T19:56:20.594Z,100.00
2022-11-16T19:58:48.905Z,100.00
2022-11-16T20:01:25.226Z,100.00
2022-11-16T20:03:54.733Z,100.00
2022-11-16T20:06:25.382Z,100.00
2022-11-16T20:08:56.046Z,100.00
2022-11-16T20:11:29.009Z,100.00
2022-11-16T20:13:58.167Z,100.00
2022-11-16T20:16:32.836Z,100.00
2022-11-16T20:19:06.344Z,100.00
2022-11-16T20:21:43.709Z,100.00
2022-11-16T20:24:15.804Z,100.00
2022-11-16T20:26:48.174Z,100.00
2022-11-16T20:29:17.661Z,100.00
2022-11-16T20:31:46.912Z,100.00
2022-11-16T20:34:16.455Z,100.00
2022-11-16T20:36:45.744Z,100.00
2022-11-16T20:39:29.495Z,100.00
2022-11-16T20:41:57.499Z,100.00
2022-11-16T20:44:25.351Z,100.00
2022-11-16T20:46:53.167Z,100.00
2022-11-16T20:49:21.302Z,100.00
2022-11-16T20:51:49.161Z,100.00
2022-11-16T20:54:17.112Z,100.00
2022-11-16T20:56:45.216Z,100.00
2022-11-16T20:59:13.065Z,100.00
2022-11-16T21:01:40.765Z,100.00
2022-11-16T21:04:08.912Z,100.00
2022-11-16T21:06:36.477Z,100.00
2022-11-16T21:09:04.310Z,99.81
2022-11-16T21:11:33.775Z,99.47
2022-11-16T21:14:01.671Z,99.41
2022-11-16T21:16:30.774Z,99.09
2022-11-16T21:19:01.391Z,98.69
2022-11-16T21:21:29.408Z,98.50
2022-11-16T21:23:57.036Z,99.14
2022-11-16T21:26:29.503Z,98.99
2022-11-16T21:28:58.281Z,98.76
2022-11-16T21:31:28.184Z,99.53
2022-11-16T21:33:57.790Z,98.91
2022-11-16T21:36:26.921Z,99.02
2022-11-16T21:38:55.307Z,98.16
2022-11-16T21:41:23.869Z,98.01
2022-11-16T21:43:51.673Z,98.43
2022-11-16T21:46:24.471Z,97.58
2022-11-16T21:48:52.227Z,96.85
2022-11-16T21:51:21.722Z,97.54
2022-11-16T21:53:49.570Z,98.12
2022-11-16T21:56:19.324Z,97.44
2022-11-16T21:58:47.364Z,97.48
2022-11-16T22:01:16.526Z,97.35
2022-11-16T22:03:44.956Z,97.64
2022-11-16T22:06:14.298Z,97.13
2022-11-16T22:08:42.312Z,97.58
2022-11-16T22:11:10.592Z,97.38
2022-11-16T22:13:38.397Z,98.02
2022-11-16T22:16:10.227Z,98.58
2022-11-16T22:18:38.813Z,100.00
2022-11-16T22:21:06.545Z,99.01
2022-11-16T22:23:34.662Z,99.95
2022-11-16T22:26:05.568Z,99.87
2022-11-16T22:28:33.604Z,99.47
2022-11-16T22:31:12.577Z,99.53
2022-11-16T22:33:41.202Z,98.99
2022-11-16T22:36:12.176Z,98.35
2022-11-16T22:38:39.998Z,97.54
2022-11-16T22:41:07.661Z,96.93
2022-11-16T22:43:35.740Z,97.10
2022-11-16T22:46:05.324Z,97.90
2022-11-16T22:48:34.970Z,97.96
2022-11-16T22:51:12.486Z,97.93
2022-11-16T22:53:40.555Z,98.40
2022-11-16T22:56:09.561Z,98.49
2022-11-16T22:58:38.355Z,97.64
2022-11-16T23:01:08.599Z,97.47
2022-11-16T23:03:37.372Z,98.11
2022-11-16T23:06:06.136Z,98.52
2022-11-16T23:08:35.506Z,98.37
2022-11-16T23:11:04.613Z,98.25
2022-11-16T23:13:32.453Z,96.75
2022-11-16T23:16:04.398Z,97.12
2022-11-16T23:18:32.131Z,97.24
2022-11-16T23:21:00.584Z,97.24
2022-11-16T23:23:28.321Z,97.21
2022-11-16T23:25:56.090Z,97.41
2022-11-16T23:28:24.068Z,97.25
2022-11-16T23:30:51.864Z,97.06
2022-11-16T23:33:19.753Z,97.63
2022-11-16T23:35:47.629Z,98.33
2022-11-16T23:38:15.272Z,98.06
2022-11-16T23:40:43.111Z,98.23
2022-11-16T23:43:11.138Z,97.63
2022-11-16T23:45:40.104Z,98.62
2022-11-16T23:48:08.948Z,98.31
2022-11-16T23:50:37.542Z,97.78
2022-11-16T23:53:06.237Z,97.31
2022-11-16T23:55:34.682Z,97.20
2022-11-16T23:58:03.585Z,96.92
